Time;durP1;ratioP1;P1;durP2;ratioP2;P2;SDS_P1;SDS_P2;PMS_P1;PMS_P2;Temp;Humidity;BMP_temperature;BMP_pressure;BME280_temperature;BME280_humidity;BME280_pressure;Samples;Min_cycle;Max_cycle;Signal;HPM_P1;HPM_P2
2022/07/07 00:02:08;;;;;;;13.80;3.53;;;16.60;99.90;;;;;;5038338;28;20076;-68
2022/07/07 00:04:34;;;;;;;11.02;4.18;;;16.60;99.90;;;;;;5038482;28;20045;-69
2022/07/07 00:06:59;;;;;;;11.02;4.07;;;16.30;99.90;;;;;;5038263;28;20332;-68
2022/07/07 00:09:27;;;;;;;9.57;4.40;;;16.10;99.90;;;;;;5038202;28;20029;-68
2022/07/07 00:11:53;;;;;;;12.98;4.20;;;16.20;99.90;;;;;;5038054;28;20051;-68
2022/07/07 00:14:18;;;;;;;11.00;5.07;;;16.00;99.90;;;;;;5037329;28;20045;-68
2022/07/07 00:16:44;;;;;;;11.10;4.93;;;15.80;99.90;;;;;;5038018;28;20038;-68
2022/07/07 00:19:10;;;;;;;12.50;6.35;;;15.80;99.90;;;;;;5038149;28;20045;-68
2022/07/07 00:21:35;;;;;;;13.13;5.22;;;15.70;99.90;;;;;;5037827;28;20060;-68
2022/07/07 00:24:01;;;;;;;15.82;5.90;;;15.70;99.90;;;;;;5038194;28;20037;-68
2022/07/07 00:26:30;;;;;;;14.35;5.90;;;16.00;99.90;;;;;;5037795;28;20048;-68
2022/07/07 00:28:55;;;;;;;10.25;5.88;;;15.80;99.90;;;;;;5036855;28;20364;-68
2022/07/07 00:31:21;;;;;;;14.55;6.97;;;15.80;99.90;;;;;;5037503;28;20061;-68
2022/07/07 00:33:47;;;;;;;16.38;5.45;;;15.80;99.90;;;;;;5037849;28;20140;-68
2022/07/07 00:36:12;;;;;;;14.15;6.30;;;15.70;99.90;;;;;;5037776;28;20081;-68
2022/07/07 00:38:38;;;;;;;17.80;6.32;;;15.70;99.90;;;;;;5037761;28;20037;-68
2022/07/07 00:41:03;;;;;;;12.02;6.45;;;15.70;99.90;;;;;;5037510;28;20053;-69
2022/07/07 00:43:39;;;;;;;18.50;7.10;;;15.90;99.90;;;;;;5036444;28;20041;-68
2022/07/07 00:46:04;;;;;;;12.38;5.68;;;15.70;99.90;;;;;;5037475;28;20045;-68
2022/07/07 00:48:33;;;;;;;12.77;5.65;;;15.70;99.90;;;;;;5037572;28;20045;-68
2022/07/07 00:50:58;;;;;;;16.65;5.32;;;15.80;99.90;;;;;;5037479;28;20085;-68
2022/07/07 00:53:24;;;;;;;17.25;5.93;;;16.10;99.90;;;;;;5037552;28;20084;-68
2022/07/07 00:55:50;;;;;;;19.70;5.45;;;15.90;99.90;;;;;;5037193;28;20049;-68
2022/07/07 00:58:16;;;;;;;26.17;6.45;;;16.10;99.90;;;;;;5035516;28;20037;-68
2022/07/07 01:00:41;;;;;;;20.00;6.25;;;16.10;99.90;;;;;;5037343;28;20454;-68
2022/07/07 01:03:08;;;;;;;20.00;5.63;;;15.90;99.90;;;;;;5035785;28;20060;-69
2022/07/07 01:05:36;;;;;;;17.33;6.30;;;15.90;99.90;;;;;;5037430;28;20053;-68
2022/07/07 01:08:03;;;;;;;18.52;5.78;;;16.20;99.90;;;;;;5036973;28;20347;-68
2022/07/07 01:10:29;;;;;;;19.20;5.15;;;16.00;99.90;;;;;;5037088;28;20041;-68
2022/07/07 01:12:55;;;;;;;21.35;6.03;;;16.10;99.90;;;;;;5036976;28;20037;-68
2022/07/07 01:15:20;;;;;;;20.35;6.10;;;16.00;99.90;;;;;;5019502;28;20107;-68
2022/07/07 01:17:46;;;;;;;17.55;5.25;;;16.30;99.90;;;;;;5018738;28;20371;-68
2022/07/07 01:20:13;;;;;;;18.42;5.53;;;16.20;99.90;;;;;;5036958;28;20053;-68
2022/07/07 01:22:46;;;;;;;20.52;5.88;;;16.20;99.90;;;;;;5036156;28;20046;-69
2022/07/07 01:25:12;;;;;;;14.50;5.38;;;16.30;99.90;;;;;;5036749;28;20049;-68
2022/07/07 01:27:37;;;;;;;18.45;5.97;;;16.10;99.90;;;;;;5036690;28;20053;-68
2022/07/07 01:30:03;;;;;;;19.05;5.13;;;16.40;99.90;;;;;;5036501;28;20057;-68
2022/07/07 01:32:29;;;;;;;15.40;4.30;;;16.30;99.90;;;;;;5036556;28;20049;-68
2022/07/07 01:34:55;;;;;;;11.55;3.90;;;16.10;99.90;;;;;;5036850;28;20034;-68
2022/07/07 01:37:24;;;;;;;12.45;3.90;;;16.10;99.90;;;;;;5034739;28;20130;-68
2022/07/07 01:39:50;;;;;;;16.00;3.67;;;16.20;99.90;;;;;;5036518;28;20046;-68
2022/07/07 01:42:16;;;;;;;10.02;3.35;;;15.90;99.90;;;;;;5036247;28;20045;-68
2022/07/07 01:44:42;;;;;;;9.20;3.75;;;16.10;99.90;;;;;;5036258;28;20049;-68
2022/07/07 01:47:09;;;;;;;16.15;4.40;;;16.00;99.90;;;;;;5036376;28;20045;-68
2022/07/07 01:49:36;;;;;;;11.82;3.53;;;16.10;99.90;;;;;;5035750;28;20052;-68
2022/07/07 01:52:03;;;;;;;10.63;3.40;;;15.70;99.90;;;;;;5035967;28;20038;-68
2022/07/07 01:54:30;;;;;;;17.30;4.22;;;15.90;99.90;;;;;;5035990;28;20107;-68
2022/07/07 01:56:55;;;;;;;12.82;4.10;;;15.70;99.90;;;;;;5036168;28;20045;-68
2022/07/07 01:59:21;;;;;;;14.07;4.45;;;15.80;99.90;;;;;;5036175;28;20418;-68
2022/07/07 02:01:47;;;;;;;19.02;4.50;;;16.00;99.90;;;;;;5036362;28;20055;-69
2022/07/07 02:04:12;;;;;;;16.95;4.53;;;15.80;99.90;;;;;;5035923;28;20046;-69
2022/07/07 02:06:38;;;;;;;18.15;5.15;;;15.90;99.90;;;;;;5035125;28;20103;-69
2022/07/07 02:09:04;;;;;;;22.00;5.40;;;15.70;99.90;;;;;;5035688;28;20049;-68
2022/07/07 02:11:30;;;;;;;16.92;5.32;;;15.80;99.90;;;;;;5035853;28;20053;-69
2022/07/07 02:13:55;;;;;;;17.25;4.88;;;15.80;99.90;;;;;;5034750;28;20133;-69
2022/07/07 02:16:23;;;;;;;13.95;4.53;;;16.10;99.90;;;;;;5035814;28;20041;-69
2022/07/07 02:18:53;;;;;;;16.67;5.18;;;15.90;99.90;;;;;;5035845;28;20108;-69
2022/07/07 02:21:19;;;;;;;20.60;4.90;;;16.10;99.90;;;;;;5034974;28;20091;-68
2022/07/07 02:23:46;;;;;;;20.83;4.85;;;15.90;99.90;;;;;;5018283;28;20041;-69
2022/07/07 02:26:12;;;;;;;21.33;6.20;;;15.90;99.90;;;;;;5035743;28;20060;-69
2022/07/07 02:28:39;;;;;;;14.85;4.10;;;16.10;99.90;;;;;;5035510;28;20038;-69
2022/07/07 02:31:05;;;;;;;18.10;4.18;;;16.10;99.90;;;;;;5035226;28;20164;-68
2022/07/07 02:33:31;;;;;;;23.92;4.60;;;15.90;99.90;;;;;;5035539;28;20068;-69
2022/07/07 02:35:57;;;;;;;11.25;4.05;;;15.90;99.90;;;;;;5034604;28;20115;-68
2022/07/07 02:38:24;;;;;;;21.33;3.90;;;15.80;99.90;;;;;;5035600;28;20045;-69
2022/07/07 02:40:50;;;;;;;14.73;5.10;;;16.10;99.90;;;;;;5035446;28;20427;-69
2022/07/07 02:43:16;;;;;;;20.30;4.18;;;15.80;99.90;;;;;;5035346;28;20044;-69
2022/07/07 02:45:46;;;;;;;17.05;4.28;;;16.00;99.90;;;;;;5035333;28;20034;-69
2022/07/07 02:48:14;;;;;;;18.58;4.88;;;16.00;99.90;;;;;;5035292;28;20133;-69
2022/07/07 02:50:40;;;;;;;15.80;3.65;;;16.00;99.90;;;;;;5034597;28;20052;-69
2022/07/07 02:53:07;;;;;;;14.35;3.63;;;15.80;99.90;;;;;;5035182;28;20041;-69
2022/07/07 02:55:33;;;;;;;10.25;3.13;;;15.90;99.90;;;;;;5034930;28;20045;-69
2022/07/07 02:57:59;;;;;;;15.10;3.60;;;15.70;99.90;;;;;;5035041;28;20451;-69
2022/07/07 03:00:26;;;;;;;16.50;3.22;;;15.90;99.90;;;;;;5034986;28;20037;-68
2022/07/07 03:02:53;;;;;;;11.63;2.88;;;15.70;99.90;;;;;;5034296;28;20068;-68
2022/07/07 03:05:20;;;;;;;13.40;3.50;;;15.60;99.90;;;;;;5034947;28;20041;-69
2022/07/07 03:07:45;;;;;;;10.63;2.63;;;15.80;99.90;;;;;;5035261;28;20068;-68
2022/07/07 03:10:11;;;;;;;7.78;2.22;;;15.60;99.90;;;;;;5034671;28;20460;-69
2022/07/07 03:12:37;;;;;;;12.52;2.50;;;15.70;99.90;;;;;;5017678;28;20045;-68
2022/07/07 03:15:02;;;;;;;11.52;3.10;;;15.40;99.90;;;;;;5035016;28;20430;-68
2022/07/07 03:17:28;;;;;;;9.70;2.65;;;15.40;99.90;;;;;;5034123;28;20045;-69
2022/07/07 03:19:54;;;;;;;12.18;2.33;;;15.50;99.90;;;;;;5034936;28;20099;-69
2022/07/07 03:22:19;;;;;;;16.13;2.85;;;15.30;99.90;;;;;;5034532;28;20053;-68
2022/07/07 03:24:45;;;;;;;11.40;2.25;;;15.50;99.90;;;;;;5035357;28;20045;-68
2022/07/07 03:27:11;;;;;;;11.55;2.35;;;15.20;99.90;;;;;;5038750;28;20059;-69
2022/07/07 03:29:36;;;;;;;15.30;3.22;;;15.30;99.90;;;;;;5039008;28;20132;-68
2022/07/07 03:32:03;;;;;;;14.43;2.67;;;15.00;99.90;;;;;;5037957;28;20091;-68
2022/07/07 03:34:28;;;;;;;11.98;3.47;;;14.90;99.90;;;;;;5038855;28;20377;-68
2022/07/07 03:36:54;;;;;;;13.25;3.25;;;15.20;99.90;;;;;;5038829;28;20048;-69
2022/07/07 03:39:19;;;;;;;11.25;2.95;;;15.10;99.90;;;;;;5038700;28;20375;-69
2022/07/07 03:41:45;;;;;;;17.15;3.30;;;15.20;99.90;;;;;;5038896;28;20124;-68
2022/07/07 03:44:11;;;;;;;10.50;2.55;;;15.10;99.90;;;;;;5038823;28;20392;-68
2022/07/07 03:46:36;;;;;;;6.78;2.42;;;14.90;99.90;;;;;;5039094;28;20052;-68
2022/07/07 03:49:02;;;;;;;6.55;1.92;;;15.10;99.90;;;;;;5058439;28;20045;-68
2022/07/07 03:51:28;;;;;;;5.03;1.58;;;14.80;99.90;;;;;;5058239;28;20109;-68
2022/07/07 03:53:53;;;;;;;4.40;1.13;;;14.90;99.90;;;;;;5058846;28;20110;-69
2022/07/07 03:56:19;;;;;;;4.53;1.58;;;15.00;99.90;;;;;;5058112;28;20411;-68
2022/07/07 03:58:44;;;;;;;5.00;0.93;;;14.80;99.90;;;;;;5049590;28;20037;-68
2022/07/07 04:01:10;;;;;;;4.72;1.73;;;14.80;99.90;;;;;;5038572;28;20180;-68
2022/07/07 04:03:37;;;;;;;5.65;1.10;;;14.70;99.90;;;;;;5038236;28;20052;-68
2022/07/07 04:06:04;;;;;;;4.15;1.05;;;14.90;99.90;;;;;;5038408;28;20128;-69
2022/07/07 04:08:29;;;;;;;3.58;1.30;;;14.80;99.90;;;;;;5038190;28;20053;-69
2022/07/07 04:10:55;;;;;;;8.00;1.85;;;15.00;99.90;;;;;;5038152;28;20060;-69
2022/07/07 04:13:20;;;;;;;9.70;2.45;;;14.80;99.90;;;;;;5036201;28;20049;-68
2022/07/07 04:15:46;;;;;;;15.52;3.83;;;14.70;99.90;;;;;;5038173;28;20049;-69
2022/07/07 04:18:11;;;;;;;14.50;4.63;;;14.80;99.90;;;;;;5037084;28;20096;-69
2022/07/07 04:20:37;;;;;;;16.80;4.28;;;14.80;99.90;;;;;;5037922;28;20049;-68
2022/07/07 04:23:02;;;;;;;14.82;4.55;;;15.10;99.90;;;;;;5038149;28;20041;-69
2022/07/07 04:25:28;;;;;;;20.92;3.85;;;14.90;99.90;;;;;;5037863;28;20132;-68
2022/07/07 04:27:53;;;;;;;15.52;4.30;;;15.10;99.90;;;;;;5039808;28;20087;-69
2022/07/07 04:30:19;;;;;;;22.83;5.72;;;15.10;99.90;;;;;;5057402;28;20037;-69
2022/07/07 04:32:45;;;;;;;17.30;4.13;;;14.90;99.90;;;;;;5057595;28;20049;-69
2022/07/07 04:35:10;;;;;;;19.08;4.47;;;14.90;99.90;;;;;;5057684;28;20071;-69
2022/07/07 04:37:36;;;;;;;16.98;4.22;;;15.20;99.90;;;;;;5056573;28;20049;-69
2022/07/07 04:40:05;;;;;;;16.40;3.80;;;15.20;99.90;;;;;;5043360;28;20124;-68
2022/07/07 04:42:30;;;;;;;17.27;3.75;;;15.00;99.90;;;;;;5037621;28;20112;-68
2022/07/07 04:44:56;;;;;;;14.82;3.70;;;14.90;99.90;;;;;;5037695;28;20053;-68
2022/07/07 04:47:22;;;;;;;20.80;4.38;;;14.80;99.90;;;;;;5037077;28;20061;-68
2022/07/07 04:49:47;;;;;;;17.27;4.30;;;15.00;99.90;;;;;;5037333;28;20558;-69
2022/07/07 04:52:13;;;;;;;16.80;3.50;;;15.00;99.90;;;;;;5037546;28;20102;-68
2022/07/07 04:54:39;;;;;;;19.40;4.65;;;14.80;99.90;;;;;;5033052;28;20033;-68
2022/07/07 04:57:04;;;;;;;18.63;3.90;;;15.00;99.90;;;;;;5035686;28;20123;-68
2022/07/07 04:59:30;;;;;;;16.67;4.43;;;15.00;99.90;;;;;;5020052;28;20060;-68
2022/07/07 05:01:56;;;;;;;19.27;3.53;;;15.10;99.90;;;;;;5021455;28;20046;-69
2022/07/07 05:04:21;;;;;;;13.27;3.17;;;14.90;99.90;;;;;;5036546;28;20128;-68
2022/07/07 05:06:47;;;;;;;10.73;3.67;;;14.90;99.90;;;;;;5037107;28;20150;-69
2022/07/07 05:09:12;;;;;;;13.57;3.13;;;15.10;99.90;;;;;;5036456;28;20138;-71
2022/07/07 05:11:38;;;;;;;13.40;4.20;;;15.00;99.90;;;;;;5037103;28;20073;-69
2022/07/07 05:14:04;;;;;;;14.85;3.75;;;15.00;99.90;;;;;;5036738;28;20367;-68
2022/07/07 05:16:30;;;;;;;13.25;3.38;;;15.10;99.90;;;;;;5036858;28;20041;-71
2022/07/07 05:18:56;;;;;;;14.70;2.63;;;15.20;99.90;;;;;;5036746;28;20124;-70
2022/07/07 05:21:22;;;;;;;9.75;2.28;;;14.90;99.90;;;;;;5036835;28;20136;-70
2022/07/07 05:23:47;;;;;;;11.18;2.58;;;14.90;99.90;;;;;;5035976;28;20045;-72
2022/07/07 05:26:13;;;;;;;13.77;3.20;;;14.80;99.90;;;;;;5036902;28;20041;-73
2022/07/07 05:28:41;;;;;;;14.40;2.75;;;15.00;99.90;;;;;;5036708;28;20111;-72
2022/07/07 05:31:12;;;;;;;13.40;2.35;;;15.10;99.90;;;;;;5036197;28;20061;-71
2022/07/07 05:33:38;;;;;;;10.98;2.47;;;15.10;99.90;;;;;;5036653;28;20050;-71
2022/07/07 05:36:05;;;;;;;10.48;2.85;;;15.10;99.90;;;;;;5019524;28;20363;-69
2022/07/07 05:38:30;;;;;;;10.65;2.38;;;15.30;99.90;;;;;;5018681;28;20053;-73
2022/07/07 05:40:56;;;;;;;9.23;2.60;;;15.20;99.90;;;;;;5035805;28;20110;-69
2022/07/07 05:43:22;;;;;;;13.23;2.58;;;15.20;99.90;;;;;;5036244;28;20048;-68
2022/07/07 05:45:47;;;;;;;11.23;3.10;;;15.30;99.90;;;;;;5036306;28;20048;-69
2022/07/07 05:48:13;;;;;;;12.25;3.10;;;15.40;99.90;;;;;;5035391;28;20037;-69
2022/07/07 05:50:38;;;;;;;13.15;2.83;;;15.30;99.90;;;;;;5035709;28;20041;-69
2022/07/07 05:53:04;;;;;;;15.05;2.90;;;15.30;99.90;;;;;;5036374;28;20115;-69
2022/07/07 05:55:30;;;;;;;12.23;3.28;;;15.20;99.90;;;;;;5036452;28;20037;-68
2022/07/07 05:57:56;;;;;;;13.68;2.88;;;15.40;99.90;;;;;;5036005;28;20049;-69
2022/07/07 06:00:23;;;;;;;7.68;1.77;;;15.50;99.90;;;;;;5036111;28;20362;-68
2022/07/07 06:02:49;;;;;;;8.85;1.67;;;15.50;99.90;;;;;;5035458;28;20379;-69
2022/07/07 06:05:14;;;;;;;7.57;1.67;;;15.40;99.90;;;;;;5035314;28;20416;-69
2022/07/07 06:07:40;;;;;;;9.55;2.13;;;15.40;99.90;;;;;;5035895;28;20037;-69
2022/07/07 06:10:07;;;;;;;11.52;2.30;;;15.50;99.90;;;;;;5036005;28;20064;-69
2022/07/07 06:12:33;;;;;;;13.98;2.10;;;15.30;99.90;;;;;;5035632;28;20382;-69
2022/07/07 06:14:58;;;;;;;10.90;2.35;;;15.20;99.90;;;;;;5035725;28;20045;-69
2022/07/07 06:17:24;;;;;;;11.48;2.58;;;15.30;99.90;;;;;;5035064;28;20037;-69
2022/07/07 06:19:49;;;;;;;5.75;1.30;;;15.40;99.90;;;;;;5035098;28;20057;-69
2022/07/07 06:22:15;;;;;;;13.70;2.63;;;15.30;99.90;;;;;;5035765;28;20063;-69
2022/07/07 06:24:41;;;;;;;11.52;2.38;;;15.30;99.90;;;;;;5035702;28;20060;-69
2022/07/07 06:27:07;;;;;;;11.50;2.55;;;15.40;99.90;;;;;;5035624;28;20059;-68
2022/07/07 06:29:32;;;;;;;11.95;2.40;;;15.40;99.90;;;;;;5035375;28;20041;-69
2022/07/07 06:31:58;;;;;;;10.20;1.90;;;15.40;99.90;;;;;;5034940;28;20065;-68
2022/07/07 06:34:24;;;;;;;6.95;2.20;;;15.20;99.90;;;;;;5035227;28;20041;-68
2022/07/07 06:36:49;;;;;;;5.68;1.95;;;15.40;99.90;;;;;;5035527;28;20049;-69
2022/07/07 06:39:15;;;;;;;13.20;2.40;;;15.30;99.90;;;;;;5035636;28;20099;-68
2022/07/07 06:41:40;;;;;;;9.85;2.28;;;15.40;99.90;;;;;;5035452;28;20116;-69
2022/07/07 06:44:07;;;;;;;15.65;2.60;;;15.60;99.90;;;;;;5035282;28;20107;-69
2022/07/07 06:46:33;;;;;;;9.93;2.55;;;15.50;99.90;;;;;;5034586;28;20345;-68
2022/07/07 06:48:58;;;;;;;13.77;3.33;;;15.50;99.90;;;;;;5035143;28;20041;-69
2022/07/07 06:51:24;;;;;;;23.90;3.97;;;15.70;99.90;;;;;;5035436;28;20049;-69
2022/07/07 06:53:50;;;;;;;19.10;4.00;;;15.60;99.90;;;;;;5033610;28;20084;-69
2022/07/07 06:56:15;;;;;;;16.73;4.68;;;15.60;99.90;;;;;;5017563;28;20060;-69
2022/07/07 06:58:41;;;;;;;12.70;3.22;;;15.70;99.90;;;;;;5034860;28;20042;-69
2022/07/07 07:01:08;;;;;;;16.05;3.60;;;15.70;99.90;;;;;;5034500;28;20068;-69
2022/07/07 07:03:33;;;;;;;11.35;3.00;;;16.00;99.90;;;;;;5034983;28;20059;-69
2022/07/07 07:05:59;;;;;;;9.18;2.38;;;15.90;99.90;;;;;;5035082;28;20451;-69
2022/07/07 07:08:24;;;;;;;14.05;2.70;;;16.00;99.90;;;;;;5034601;28;20107;-69
2022/07/07 07:10:50;;;;;;;12.80;3.03;;;16.00;99.90;;;;;;5017428;28;20506;-69
2022/07/07 07:13:16;;;;;;;10.88;3.10;;;16.20;99.90;;;;;;5034705;28;20041;-69
2022/07/07 07:15:41;;;;;;;11.85;3.13;;;16.20;99.90;;;;;;5034904;28;20084;-69
2022/07/07 07:18:07;;;;;;;7.55;3.05;;;16.00;99.90;;;;;;5034803;28;20374;-68
2022/07/07 07:20:33;;;;;;;8.73;1.73;;;16.10;99.90;;;;;;5035040;28;20048;-68
2022/07/07 07:22:59;;;;;;;5.85;1.90;;;15.50;99.90;;;;;;5033317;28;20034;-69
2022/07/07 07:25:24;;;;;;;11.13;2.70;;;15.70;99.90;;;;;;5034876;28;20132;-69
2022/07/07 07:27:50;;;;;;;10.48;3.08;;;15.50;99.90;;;;;;5034824;28;20124;-69
2022/07/07 07:30:16;;;;;;;9.90;2.33;;;15.60;99.90;;;;;;5034320;28;20072;-69
2022/07/07 07:32:43;;;;;;;10.68;2.63;;;15.90;99.90;;;;;;5033896;28;20060;-69
2022/07/07 07:35:08;;;;;;;14.32;2.60;;;16.00;99.90;;;;;;5017144;28;20084;-69
2022/07/07 07:37:34;;;;;;;10.00;3.00;;;16.00;99.90;;;;;;5034606;28;20077;-69
2022/07/07 07:40:00;;;;;;;10.55;2.75;;;15.80;99.90;;;;;;5034761;28;20440;-69
2022/07/07 07:42:26;;;;;;;11.95;3.28;;;15.80;99.90;;;;;;5034597;28;20387;-69
2022/07/07 07:45:09;;;;;;;20.63;4.57;;;15.90;99.90;;;;;;5034687;28;20128;-69
2022/07/07 07:47:37;;;;;;;19.50;3.53;;;16.30;99.90;;;;;;5033122;28;20084;-69
2022/07/07 07:50:03;;;;;;;10.00;2.90;;;16.40;99.90;;;;;;5034756;28;20045;-69
2022/07/07 07:52:28;;;;;;;18.70;3.60;;;16.50;99.90;;;;;;5034662;28;20060;-69
2022/07/07 07:54:54;;;;;;;14.18;3.17;;;16.20;99.90;;;;;;5034435;28;20049;-69
2022/07/07 07:57:20;;;;;;;14.80;3.95;;;16.50;99.90;;;;;;5034237;28;20041;-69
2022/07/07 07:59:45;;;;;;;8.40;2.22;;;16.70;99.90;;;;;;5033627;28;20049;-68
2022/07/07 08:02:11;;;;;;;8.80;2.70;;;16.70;99.90;;;;;;5034313;28;20104;-68
2022/07/07 08:04:37;;;;;;;11.38;2.70;;;16.80;99.90;;;;;;5034381;28;20058;-68
2022/07/07 08:07:02;;;;;;;17.70;3.35;;;16.90;99.90;;;;;;5034583;28;20048;-68
2022/07/07 08:09:28;;;;;;;15.18;4.43;;;16.80;99.90;;;;;;5034246;28;20048;-69
2022/07/07 08:11:53;;;;;;;12.77;3.00;;;16.70;99.90;;;;;;5036618;28;20052;-68
2022/07/07 08:14:19;;;;;;;13.13;2.50;;;16.70;99.90;;;;;;5037235;28;20471;-69
2022/07/07 08:16:44;;;;;;;10.10;2.90;;;16.70;99.90;;;;;;5038085;28;20045;-68
2022/07/07 08:19:10;;;;;;;10.13;2.90;;;16.90;99.90;;;;;;5038035;28;20196;-68
2022/07/07 08:21:36;;;;;;;16.80;3.58;;;16.90;99.90;;;;;;5038114;28;20042;-69
2022/07/07 08:24:01;;;;;;;10.30;3.42;;;17.10;99.90;;;;;;5037823;28;20367;-69
2022/07/07 08:26:27;;;;;;;10.10;3.28;;;17.00;99.90;;;;;;5037699;28;20045;-69
2022/07/07 08:28:52;;;;;;;7.57;3.67;;;16.80;99.90;;;;;;5037161;28;20073;-68
2022/07/07 08:31:18;;;;;;;11.57;3.05;;;16.90;99.90;;;;;;5037683;28;20136;-68
2022/07/07 08:33:43;;;;;;;11.43;2.40;;;17.10;99.90;;;;;;5037885;28;20052;-69
2022/07/07 08:36:09;;;;;;;7.72;2.70;;;17.00;99.90;;;;;;5037930;28;20103;-68
2022/07/07 08:38:35;;;;;;;10.20;2.85;;;17.20;99.90;;;;;;5037453;28;20111;-68
2022/07/07 08:41:01;;;;;;;9.50;2.42;;;17.10;99.90;;;;;;5037655;28;20045;-68
2022/07/07 08:43:28;;;;;;;9.85;2.28;;;17.10;99.90;;;;;;5036812;28;20069;-68
2022/07/07 08:45:53;;;;;;;15.95;3.45;;;17.20;99.90;;;;;;5037448;28;20432;-70
2022/07/07 08:48:20;;;;;;;10.32;2.47;;;17.30;99.90;;;;;;5019772;28;20060;-69
2022/07/07 08:50:46;;;;;;;10.20;3.13;;;17.30;99.90;;;;;;5037534;28;20060;-69
2022/07/07 08:53:13;;;;;;;8.13;2.80;;;17.30;99.90;;;;;;5037229;28;20041;-69
2022/07/07 08:55:41;;;;;;;7.90;3.08;;;17.30;99.90;;;;;;5037712;28;20053;-68
2022/07/07 08:58:09;;;;;;;11.55;2.58;;;17.50;99.90;;;;;;5036496;28;20124;-69
2022/07/07 09:00:34;;;;;;;11.57;2.55;;;17.70;99.90;;;;;;5037198;28;20046;-68
2022/07/07 09:03:03;;;;;;;11.82;2.92;;;17.50;99.90;;;;;;5037401;28;20056;-68
2022/07/07 09:05:37;;;;;;;10.10;3.75;;;17.40;99.90;;;;;;5037432;28;20115;-68
2022/07/07 09:08:16;;;;;;;6.13;1.85;;;17.40;99.90;;;;;;5037133;28;20072;-69
2022/07/07 09:10:44;;;;;;;6.55;1.60;;;17.40;99.90;;;;;;5036010;28;20049;-69
2022/07/07 09:13:29;;;;;;;5.13;1.17;;;17.60;99.90;;;;;;5037143;28;20372;-69
2022/07/07 09:16:13;;;;;;;4.63;1.15;;;17.50;99.90;;;;;;5037092;28;20150;-69
2022/07/07 09:18:41;;;;;;;4.87;1.67;;;17.60;99.90;;;;;;5037052;28;20049;-69
2022/07/07 09:21:28;;;;;;;5.78;1.98;;;17.50;99.90;;;;;;5036850;28;20393;-68
2022/07/07 09:23:56;;;;;;;7.07;1.70;;;17.50;99.90;;;;;;5036374;28;20072;-69
2022/07/07 09:26:38;;;;;;;8.73;2.20;;;17.40;99.90;;;;;;5036141;28;20053;-68
2022/07/07 09:29:10;;;;;;;9.40;2.60;;;17.40;99.90;;;;;;5036679;28;20053;-68
2022/07/07 09:31:55;;;;;;;8.60;2.92;;;17.10;99.90;;;;;;5036802;28;20053;-68
2022/07/07 09:34:22;;;;;;;12.63;2.90;;;16.90;99.90;;;;;;5036626;28;20045;-68
2022/07/07 09:39:58;;;;;;;15.55;3.10;;;16.90;99.90;;;;;;5036459;28;20136;-68
2022/07/07 09:42:31;;;;;;;9.48;3.30;;;16.80;99.90;;;;;;5030297;28;20371;-69
2022/07/07 09:45:05;;;;;;;9.73;3.20;;;16.90;99.90;;;;;;5036533;28;20429;-68
2022/07/07 09:47:32;;;;;;;12.30;2.75;;;16.60;99.90;;;;;;5036212;28;20355;-68
2022/07/07 09:50:12;;;;;;;14.25;3.40;;;16.60;99.90;;;;;;5036317;28;20047;-68
2022/07/07 09:52:40;;;;;;;17.08;4.68;;;16.50;99.90;;;;;;5036784;28;20045;-68
2022/07/07 09:55:11;;;;;;;18.83;4.35;;;16.30;99.90;;;;;;5035699;28;20045;-68
2022/07/07 09:57:37;;;;;;;12.48;3.60;;;16.40;99.90;;;;;;5036343;28;20452;-68
2022/07/07 10:00:04;;;;;;;12.50;3.47;;;16.30;99.90;;;;;;5035531;28;20045;-69
2022/07/07 10:02:30;;;;;;;20.77;5.07;;;16.30;99.90;;;;;;5035748;28;20164;-69
2022/07/07 10:05:00;;;;;;;14.68;3.20;;;16.30;99.90;;;;;;5001270;28;20061;-69
2022/07/07 10:07:29;;;;;;;11.48;3.55;;;16.40;99.90;;;;;;5035993;28;20049;-68
2022/07/07 10:10:05;;;;;;;11.57;3.17;;;16.40;99.90;;;;;;5035360;28;20071;-69
2022/07/07 10:12:33;;;;;;;16.23;4.00;;;16.70;99.90;;;;;;5035827;28;20051;-69
2022/07/07 10:15:04;;;;;;;15.60;3.22;;;16.50;99.90;;;;;;5035881;28;20115;-69
2022/07/07 10:17:30;;;;;;;17.20;4.47;;;16.70;99.90;;;;;;5035895;28;20108;-69
2022/07/07 10:19:57;;;;;;;18.00;4.43;;;16.60;99.90;;;;;;5034937;28;20053;-69
2022/07/07 10:22:27;;;;;;;24.45;5.78;;;16.70;99.90;;;;;;5035759;28;20132;-69
2022/07/07 10:24:58;;;;;;;18.42;4.70;;;16.70;99.90;;;;;;5035692;28;20366;-69
2022/07/07 10:27:26;;;;;;;20.23;5.05;;;16.50;99.90;;;;;;5033984;28;20057;-69
2022/07/07 10:29:57;;;;;;;21.55;4.28;;;16.60;99.90;;;;;;5034793;28;20049;-69
2022/07/07 10:32:40;;;;;;;23.65;5.65;;;16.50;99.90;;;;;;5035642;28;20464;-69
2022/07/07 10:35:11;;;;;;;18.58;4.03;;;16.50;99.90;;;;;;5034639;28;20041;-69
2022/07/07 10:38:09;;;;;;;15.23;3.95;;;16.60;99.90;;;;;;5035308;28;20045;-69
2022/07/07 10:40:34;;;;;;;11.27;2.85;;;16.70;99.90;;;;;;5034405;28;20123;-69
2022/07/07 10:43:19;;;;;;;13.70;2.83;;;16.80;99.90;;;;;;5039271;28;20053;-69
2022/07/07 10:45:45;;;;;;;;;;;17.00;99.90;;;;;;5055699;28;20128;-69
2022/07/07 10:48:47;;;;;;;12.95;3.17;;;17.20;99.90;;;;;;5055078;28;19946;-69
2022/07/07 10:51:18;;;;;;;17.88;4.80;;;17.30;99.90;;;;;;5055131;28;20048;-69
2022/07/07 10:54:04;;;;;;;14.18;3.78;;;17.40;99.90;;;;;;5055321;28;20136;-68
2022/07/07 10:56:51;;;;;;;20.40;4.25;;;17.60;99.90;;;;;;5043610;28;20352;-69
2022/07/07 10:59:18;;;;;;;15.93;3.78;;;17.80;99.90;;;;;;5035026;28;20060;-69
2022/07/07 11:02:01;;;;;;;19.35;4.35;;;17.80;99.90;;;;;;5035055;28;20360;-68
2022/07/07 11:04:42;;;;;;;15.40;3.60;;;17.90;99.90;;;;;;5034966;28;20456;-69
2022/07/07 11:07:14;;;;;;;10.27;2.72;;;17.90;99.90;;;;;;5035240;28;20127;-69
2022/07/07 11:10:00;;;;;;;15.45;4.65;;;17.70;99.90;;;;;;5034755;28;20091;-69
2022/07/07 11:12:45;;;;;;;15.63;3.38;;;17.80;99.90;;;;;;5015005;28;20042;-69
2022/07/07 11:15:23;;;;;;;13.98;4.22;;;17.90;99.90;;;;;;5046511;28;20113;-69
2022/07/07 11:17:52;;;;;;;11.43;3.53;;;17.90;99.90;;;;;;5054749;28;20107;-69
2022/07/07 11:20:20;;;;;;;12.45;3.40;;;18.00;99.90;;;;;;5054745;28;20040;-69
2022/07/07 11:22:48;;;;;;;17.98;3.53;;;17.90;99.90;;;;;;5054315;28;20049;-69
2022/07/07 11:25:17;;;;;;;11.88;3.15;;;18.20;99.90;;;;;;5049404;28;20037;-69
2022/07/07 11:27:43;;;;;;;10.25;3.13;;;18.10;99.90;;;;;;5034792;28;20041;-69
2022/07/07 11:30:09;;;;;;;11.57;3.75;;;18.10;99.90;;;;;;5034847;28;20136;-69
2022/07/07 11:32:39;;;;;;;22.17;4.35;;;18.50;99.90;;;;;;5034883;28;20054;-69
2022/07/07 11:35:07;;;;;;;16.15;4.38;;;18.30;99.90;;;;;;5034648;28;20049;-69
2022/07/07 11:37:33;;;;;;;18.48;4.72;;;18.20;99.90;;;;;;5034606;28;20419;-69
2022/07/07 11:40:00;;;;;;;14.75;4.20;;;18.30;99.90;;;;;;5034231;28;20037;-69
2022/07/07 11:42:33;;;;;;;14.80;4.70;;;18.40;99.90;;;;;;5034451;28;20451;-69
2022/07/07 11:44:58;;;;;;;17.77;3.70;;;18.50;99.90;;;;;;5034643;28;20049;-69
2022/07/07 11:47:24;;;;;;;16.77;3.95;;;18.70;99.90;;;;;;5037889;28;20038;-70
2022/07/07 11:49:52;;;;;;;11.10;3.58;;;18.70;99.90;;;;;;5038417;28;20159;-69
2022/07/07 11:52:21;;;;;;;11.98;3.42;;;18.60;99.90;;;;;;5038377;28;20060;-70
2022/07/07 11:54:48;;;;;;;16.17;3.40;;;18.50;99.90;;;;;;5037174;28;20057;-69
2022/07/07 11:57:26;;;;;;;12.68;3.45;;;18.30;99.90;;;;;;5038529;28;20041;-69
2022/07/07 11:59:51;;;;;;;13.82;3.58;;;18.30;99.90;;;;;;5038379;28;20061;-69
2022/07/07 12:02:18;;;;;;;17.27;3.53;;;18.00;99.90;;;;;;5038126;28;20084;-69
2022/07/07 12:04:43;;;;;;;18.92;4.40;;;18.10;99.90;;;;;;5038079;28;20049;-69
2022/07/07 12:07:12;;;;;;;13.02;4.57;;;17.70;99.90;;;;;;5037990;28;20095;-69
2022/07/07 12:09:44;;;;;;;13.82;4.20;;;17.70;99.90;;;;;;5037697;28;20056;-69
2022/07/07 12:12:17;;;;;;;16.17;4.43;;;17.80;99.90;;;;;;5037367;28;20463;-69
2022/07/07 12:14:43;;;;;;;9.85;3.78;;;17.80;99.90;;;;;;5037888;28;20055;-69
2022/07/07 12:17:09;;;;;;;10.55;3.47;;;17.90;99.90;;;;;;5037828;28;20042;-69
2022/07/07 12:19:46;;;;;;;16.92;3.88;;;18.00;99.90;;;;;;5037832;28;20153;-69
2022/07/07 12:22:12;;;;;;;13.80;3.85;;;17.90;99.90;;;;;;5036984;28;20494;-70
2022/07/07 12:24:37;;;;;;;14.15;3.22;;;17.80;99.90;;;;;;5038011;28;20049;-69
2022/07/07 12:27:03;;;;;;;17.85;5.15;;;17.80;99.90;;;;;;5038081;28;20046;-69
2022/07/07 12:29:29;;;;;;;15.40;3.92;;;17.50;99.90;;;;;;5037727;28;20049;-69
2022/07/07 12:31:55;;;;;;;15.68;4.47;;;17.50;99.90;;;;;;5037762;28;20072;-70
2022/07/07 12:34:22;;;;;;;16.20;4.03;;;17.40;99.90;;;;;;5037813;28;20108;-69
2022/07/07 12:36:49;;;;;;;17.75;3.53;;;17.40;99.90;;;;;;5037171;28;20038;-69
2022/07/07 12:39:15;;;;;;;11.80;3.83;;;17.60;99.90;;;;;;5037924;28;20045;-69
2022/07/07 12:41:41;;;;;;;12.20;3.88;;;18.00;99.90;;;;;;5037857;28;20260;-69
2022/07/07 12:44:19;;;;;;;15.13;3.67;;;18.10;99.90;;;;;;5037432;28;20120;-69